Amunt
Inicio > meteoXarxa
Fes-te'n soci

METEOXARXA

Almenara
Ubicació Platja Casablanca
Comarca la Plana Baixa
Altitud (msnm) 12
Posició geogràfica 39° 43' 52.82" N, 00° 11' 5.08" W
Model Oregon WMR100
Presa de dades
Font de les dades El temps. Almenara
Estadístiques. Resum
Data Temperatura (ºC) Humitat (%) Pressió (hPa) Vent (km/h) Precipit. (mm)
Mínima Mitjana Màxima Mínima Mitjana Màxima Mínima Mitjana Màxima Predom. Mitjana Ràfega màxima Total Dies de pluja
Mínima Mitjana Màxima Mínima Mitjana Màxima
Últimes dades diàries
27-03-2017 10,4     14,7     19,0 44,0 64,5 85,0 1.014,0 1.018,0 1.022,0 36,0 1,7  
26-03-2017 7,0     11,2     15,5 65,0 72,5 80,0 1.013,0 1.014,5 1.016,0 24,0 0,0  
25-03-2017 5,2     12,0     18,8 30,0 51,5 73,0 1.009,0 1.012,0 1.015,0 43,0 0,0  
24-03-2017 0,0     5,9     11,8 51,0 57,5 64,0 1.011,0 1.011,5 1.012,0 28,0 0,0  
22-03-2017 8,5     14,2     19,8 32,0 60,5 89,0 1.010,0 1.011,5 1.013,0 25,0 0,0  
21-03-2017 8,0     11,8     15,7 77,0 87,0 97,0 1.010,0 1.011,5 1.013,0 18,0 0,0  
20-03-2017 8,7     12,2     15,6 67,0 80,0 93,0 1.010,0 1.011,5 1.013,0 17,0 0,0  
19-03-2017 7,8     11,7     15,6 58,0 70,5 83,0 1.012,0 1.014,0 1.016,0 14,0 0,0  
18-03-2017 5,6     10,9     16,3 54,0 68,5 83,0 1.016,0 1.018,5 1.021,0 20,0 0,0  
17-03-2017 5,8     10,8     15,7 54,0 67,0 80,0 1.019,0 1.020,0 1.021,0 18,0 0,0  
16-03-2017 6,9     11,2     15,5 66,0 74,5 83,0 1.020,0 1.022,0 1.024,0 14,0 0,0  
15-03-2017 10,4     13,4     16,5 50,0 62,0 74,0 1.022,0 1.024,0 1.026,0 28,0 0,0  
14-03-2017 12,1     14,3     16,5 58,0 69,0 80,0 1.022,0 1.024,5 1.027,0 37,0 0,0  
13-03-2017 0,0     7,2     14,3 78,0 80,0 82,0 1.023,0 1.023,0 1.023,0 45,0 34,4  
10-03-2017 12,9     15,5     18,1 42,0 66,5 91,0 1.016,0 1.017,5 1.019,0 21,0 0,0  
09-03-2017 9,7     14,8     20,0 57,0 68,0 79,0 1.019,0 1.022,0 1.025,0 36,0 0,0  
08-03-2017 12,1     15,4     18,8 44,0 60,5 77,0 1.020,0 1.022,5 1.025,0 25,0 0,0  
07-03-2017 14,0     19,6     25,3 26,0 38,5 51,0 1.017,0 1.019,0 1.021,0 59,0 0,0  
06-03-2017 12,8     19,4     25,9 26,0 47,0 68,0 1.015,0 1.018,0 1.021,0 47,0 0,0  
05-03-2017 7,7     14,9     22,1 42,0 51,5 61,0 1.010,0 1.014,0 1.018,0 26,0 0,0  
04-03-2017 8,0     11,5     15,0 35,0 50,5 66,0 997,0 1.003,5 1.010,0 49,0 0,0  
03-03-2017 7,2     10,6     14,0 67,0 80,0 93,0 997,0 1.006,0 1.015,0 74,0 2,7  
02-03-2017 8,0     11,3     14,7 73,0 83,0 93,0 1.014,0 1.015,5 1.017,0 17,0 0,0  
01-03-2017 7,1     11,3     15,6 54,0 70,5 87,0 1.014,0 1.016,0 1.018,0 21,0 0,0  
28-02-2017 11,1     14,8     18,5 43,0 51,5 60,0 1.007,0 1.010,5 1.014,0 25,0 0,0  
27-02-2017 6,1     10,6     15,1 44,0 66,5 89,0 1.008,0 1.012,0 1.016,0 21,0 0,0  
26-02-2017 8,5     11,4     14,3 73,0 81,0 89,0 1.016,0 1.018,0 1.020,0 14,0 0,0  
25-02-2017 6,2     9,9     13,7 64,0 76,5 89,0 1.015,0 1.017,5 1.020,0 18,0 0,0  
24-02-2017 9,3     11,7     14,1 68,0 81,0 94,0 1.009,0 1.012,5 1.016,0 21,0 12,4  
23-02-2017 10,1     13,1     16,0 55,0 67,0 79,0 1.010,0 1.014,0 1.018,0 40,0 0,0  
22-02-2017 6,0     10,4     14,9 57,0 67,0 77,0 1.017,0 1.019,5 1.022,0 13,0 0,0  
21-02-2017 5,2     10,0     14,8 55,0 65,5 76,0 1.020,0 1.022,0 1.024,0 21,0 0,0  
Dades del mes en curs (actualitzades fins l'últim dia disponible)
03/2017 0,0 8,2 14,0 12,7 11,8 17,3 25,9 26,0 65,9 97,0 997,0 1.016,3 1.027,0   74,0 38,8  
Últimes dades mensuals
02/2017 5,2 8,8 15,4 12,2 13,0 15,6 22,8 32,5 67,4 91,5 1.006,0 1.016,6 1.029,5 89,0 22,6 4
01/2017 0,0 5,8 10,3 9,9 9,0 13,9 22,1 23,5 62,1 90,5 1.010,0 1.017,1 1.025,0 79,0 120,9 6
12/2016 3,9 8,4 15,0 11,9 11,0 15,3 17,3 60,5 75,7 86,5 1.012,0 1.024,4 1.033,5 60,0 125,5 7
11/2016 6,7 10,3 16,3 14,2 9,4 18,1 25,6 38,0 65,4 82,0 1.001,0 1.013,8 1.027,0 79,0 98,1 7
10/2016 10,6 16,1 19,2 19,2 19,6 22,3 24,3 54,0 77,3 88,5 999,5 1.015,1 1.028,0 33,0 12,2 8
09/2016 13,6 18,9 23,8 22,6 18,7 26,2 30,4 40,5 68,6 79,5 1.010,5 1.016,5 1.024,0 49,0 14,0 4
08/2016 17,2 20,9 24,7 24,2 25,1 27,5 32,2 59,5 72,6 84,0 1.009,0 1.017,1 1.023,0 38,0 9,8 5
07/2016 17,1 20,7 23,2 23,8 24,2 26,9 29,1 53,0 70,6 83,5 1.012,0 1.016,2 1.020,5 42,0 2,5 2
06/2016 13,8 17,8 22,1 21,1 21,0 24,3 32,4 36,5 69,9 83,0 1.001,0 1.014,6 1.022,5 52,0 1,4 1
05/2016 9,1 13,9 18,1 17,3 17,2 20,7 31,3 39,5 69,3 91,0 1.003,0 1.012,7 1.020,5 50,0 25,4 7
04/2016 6,3 11,3 15,1 15,0 15,0 18,7 26,7 41,0 67,1 83,5 1.003,5 1.011,6 1.017,5 44,0 18,0 8
03/2016 5,4 9,3 13,6 13,3 12,8 17,3 24,0 51,5 67,2 86,5 1.004,0 1.012,8 1.018,5 51,0 1,7 2
Dades de l'any en curs (actualitzades fins l'últim dia disponible)
2017 0,0 7,5 15,4 11,5 9,0 15,5 25,9 15,0 65,0 97,0 997,0 1.016,7 1.031,0   89,0 182,3  
Últimes dades anuals